Time;durP1;ratioP1;P1;durP2;ratioP2;P2;SDS_P1;SDS_P2;PMS_P1;PMS_P2;Temp;Humidity;BMP_temperature;BMP_pressure;BME280_temperature;BME280_humidity;BME280_pressure;Samples;Min_cycle;Max_cycle;Signal;HPM_P1;HPM_P2
2022/12/08 00:01:11;;;;;;;23.85;11.70;;;;;;;4.77;100.00;99373.88;12210582;19;20006;-83
2022/12/08 00:09:35;;;;;;;23.13;11.27;;;;;;;4.78;100.00;99375.53;12187285;19;20003;-84
2022/12/08 00:13:40;;;;;;;27.60;11.05;;;;;;;4.75;100.00;99376.81;12200562;19;20010;-83
2022/12/08 00:17:42;;;;;;;22.33;10.63;;;;;;;4.74;100.00;99368.84;12204736;19;20006;-83
2022/12/08 00:21:44;;;;;;;23.65;10.63;;;;;;;4.73;100.00;99369.88;12180645;19;20006;-84
2022/12/08 00:25:45;;;;;;;21.52;10.65;;;;;;;4.68;100.00;99359.66;12201926;19;20026;-82
2022/12/08 00:29:47;;;;;;;24.15;11.77;;;;;;;4.61;100.00;99347.13;12201586;19;20007;-83
2022/12/08 00:33:49;;;;;;;25.30;11.48;;;;;;;4.55;100.00;99344.25;12180987;19;20010;-83
2022/12/08 00:37:50;;;;;;;21.15;10.65;;;;;;;4.57;100.00;99341.28;12200146;19;20006;-84
2022/12/08 00:42:11;;;;;;;22.10;10.93;;;;;;;4.57;100.00;99327.63;12202781;19;20014;-81
2022/12/08 00:46:13;;;;;;;26.73;12.52;;;;;;;4.52;100.00;99328.31;12178997;19;20026;-82
2022/12/08 00:50:14;;;;;;;25.77;11.15;;;;;;;4.52;100.00;99332.91;12198460;19;20011;-82
2022/12/08 00:54:17;;;;;;;27.75;11.13;;;;;;;4.52;100.00;99328.31;12175673;19;20002;-82
2022/12/08 00:58:18;;;;;;;21.75;10.75;;;;;;;4.51;100.00;99326.63;12198826;19;20006;-83
2022/12/08 01:02:20;;;;;;;22.85;10.18;;;;;;;4.54;100.00;99318.00;12197833;19;20352;-82
2022/12/08 01:06:22;;;;;;;25.40;10.93;;;;;;;4.51;100.00;99315.69;12178445;19;20014;-82
2022/12/08 01:10:23;;;;;;;22.17;10.30;;;;;;;4.48;100.00;99316.16;12196120;19;20007;-83
2022/12/08 01:14:25;;;;;;;21.33;10.05;;;;;;;4.48;100.00;99310.69;12197383;19;20006;-82
2022/12/08 01:18:27;;;;;;;23.17;11.02;;;;;;;4.51;100.00;99312.16;12176583;19;20017;-83
2022/12/08 01:22:29;;;;;;;24.05;10.63;;;;;;;4.49;100.00;99308.78;12189370;19;20003;-83
2022/12/08 01:26:30;;;;;;;18.85;9.82;;;;;;;4.44;100.00;99319.56;12196227;19;20003;-82
2022/12/08 01:30:32;;;;;;;22.45;10.68;;;;;;;4.47;100.00;99321.84;12174956;19;20007;-81
2022/12/08 01:34:34;;;;;;;27.15;11.13;;;;;;;4.47;100.00;99316.38;12204071;19;20003;-82
2022/12/08 01:38:35;;;;;;;22.15;9.98;;;;;;;4.49;100.00;99306.94;12210148;19;20018;-82
2022/12/08 01:42:37;;;;;;;23.50;10.18;;;;;;;4.48;100.00;99313.41;12179592;19;20309;-82
2022/12/08 01:46:41;;;;;;;24.35;9.82;;;;;;;4.48;100.00;99312.59;12206886;19;20006;-83
2022/12/08 01:50:43;;;;;;;21.67;10.27;;;;;;;4.47;100.00;99313.66;12203370;19;20003;-82
2022/12/08 01:54:58;;;;;;;20.50;9.93;;;;;;;4.44;100.00;99304.03;12182893;19;20365;-82
2022/12/08 01:59:00;;;;;;;22.67;10.10;;;;;;;4.41;100.00;99293.56;12207260;19;20010;-82
2022/12/08 02:03:16;;;;;;;23.77;8.13;;;;;;;4.43;100.00;99294.19;12201827;19;20002;-81
2022/12/08 02:07:19;;;;;;;24.30;10.32;;;;;;;4.43;100.00;99283.28;12211141;19;20605;-81
2022/12/08 02:11:20;;;;;;;23.35;10.27;;;;;;;4.38;100.00;99285.81;12205832;19;20051;-81
2022/12/08 02:15:45;;;;;;;21.80;9.55;;;;;;;4.37;100.00;99278.66;12184531;19;20019;-81
2022/12/08 02:19:52;;;;;;;22.90;9.77;;;;;;;4.38;100.00;99280.34;12204314;19;20006;-81
2022/12/08 02:23:54;;;;;;;21.20;10.50;;;;;;;4.40;100.00;99264.59;12203808;19;20026;-80
2022/12/08 02:28:43;;;;;;;21.92;11.10;;;;;;;4.34;100.00;99265.47;12179658;19;20081;-82
2022/12/08 02:32:57;;;;;;;22.05;9.38;;;;;;;4.31;100.00;99274.09;12205699;19;20026;-81
2022/12/08 02:37:08;;;;;;;20.90;9.88;;;;;;;4.28;100.00;99261.78;12185901;19;20516;-80
2022/12/08 02:41:25;;;;;;;21.08;9.52;;;;;;;4.30;100.00;99259.63;12208260;19;20020;-82
2022/12/08 02:45:33;;;;;;;23.10;10.27;;;;;;;4.25;100.00;99264.09;12185606;19;20011;-82
2022/12/08 02:49:34;;;;;;;21.45;9.38;;;;;;;4.23;100.00;99256.16;12201779;19;20010;-82
2022/12/08 02:53:36;;;;;;;21.35;10.40;;;;;;;4.26;100.00;99260.31;12204308;19;20010;-82
2022/12/08 02:58:13;;;;;;;24.10;10.13;;;;;;;4.32;100.00;99256.69;12183085;19;20022;-83
2022/12/08 03:02:38;;;;;;;23.55;10.55;;;;;;;4.30;100.00;99258.81;12203552;19;20010;-82
2022/12/08 03:06:51;;;;;;;21.92;10.23;;;;;;;4.23;100.00;99252.59;12179215;19;20099;-81
2022/12/08 03:11:10;;;;;;;21.27;9.73;;;;;;;4.19;100.00;99248.63;12201685;19;20039;-81
2022/12/08 03:15:17;;;;;;;22.60;10.20;;;;;;;4.14;100.00;99249.28;12179199;19;20371;-82
2022/12/08 03:19:24;;;;;;;25.02;10.32;;;;;;;4.13;100.00;99242.16;12194754;19;20003;-82
2022/12/08 03:23:26;;;;;;;22.33;10.85;;;;;;;4.13;100.00;99244.06;12201337;19;20070;-82
2022/12/08 03:27:30;;;;;;;20.10;8.53;;;;;;;4.19;100.00;99234.97;12179570;19;20918;-83
2022/12/08 03:31:36;;;;;;;23.73;9.82;;;;;;;4.23;100.00;99242.50;12201939;19;20011;-83
2022/12/08 03:35:40;;;;;;;23.65;9.88;;;;;;;4.18;100.00;99225.13;12201708;19;20006;-82
2022/12/08 03:39:42;;;;;;;21.48;9.88;;;;;;;4.16;100.00;99221.78;12174738;19;20030;-83
2022/12/08 03:43:49;;;;;;;21.67;9.32;;;;;;;4.15;100.00;99217.41;12202634;19;20011;-83
2022/12/08 03:47:51;;;;;;;22.73;10.23;;;;;;;4.11;100.00;99217.84;12204683;19;21061;-83
2022/12/08 03:51:52;;;;;;;21.83;9.23;;;;;;;4.10;100.00;99210.75;12177950;19;20006;-82
2022/12/08 03:55:54;;;;;;;19.55;9.40;;;;;;;4.08;100.00;99212.03;12204853;19;20095;-81
2022/12/08 03:59:56;;;;;;;22.98;9.95;;;;;;;4.04;100.00;99200.69;12244334;19;20003;-81
2022/12/08 04:03:57;;;;;;;18.80;9.10;;;;;;;4.03;100.00;99204.50;12205690;19;20345;-82
2022/12/08 04:07:59;;;;;;;23.17;8.82;;;;;;;4.08;100.00;99199.22;12210625;19;20390;-82
2022/12/08 04:12:01;;;;;;;20.67;9.03;;;;;;;4.09;100.00;99198.16;12202263;19;20014;-82
2022/12/08 04:16:04;;;;;;;21.48;9.07;;;;;;;4.07;100.00;99196.69;12187996;19;20339;-82
2022/12/08 04:20:06;;;;;;;23.63;10.25;;;;;;;4.14;100.00;99202.13;12205400;19;20013;-83
2022/12/08 04:24:08;;;;;;;20.58;8.75;;;;;;;4.11;100.00;99190.59;12186873;19;20010;-81
2022/12/08 04:28:10;;;;;;;21.63;9.45;;;;;;;4.11;100.00;99185.13;12201695;19;20007;-83
2022/12/08 04:32:11;;;;;;;20.70;9.63;;;;;;;4.13;100.00;99186.78;12200002;19;20007;-82
2022/12/08 04:36:13;;;;;;;20.08;8.48;;;;;;;4.15;100.00;99188.25;12182070;19;20011;-82
2022/12/08 04:40:15;;;;;;;19.45;9.52;;;;;;;4.14;100.00;99172.94;12199828;19;20006;-82
2022/12/08 04:44:16;;;;;;;22.45;9.02;;;;;;;4.18;100.00;99178.78;12201562;19;20100;-83
2022/12/08 04:48:18;;;;;;;22.90;8.80;;;;;;;4.21;100.00;99181.06;12181270;19;20003;-82
2022/12/08 04:52:21;;;;;;;24.15;10.65;;;;;;;4.19;100.00;99183.16;12205391;19;20088;-81
2022/12/08 04:56:22;;;;;;;24.42;9.85;;;;;;;4.19;100.00;99180.44;12247277;19;19995;-82
2022/12/08 05:00:24;;;;;;;18.35;8.90;;;;;;;4.20;100.00;99176.69;12233231;19;19980;-82
2022/12/08 05:04:26;;;;;;;22.85;9.35;;;;;;;4.24;100.00;99172.44;12221718;19;20002;-83
2022/12/08 05:08:28;;;;;;;19.98;8.77;;;;;;;4.23;100.00;99178.94;12207864;19;20022;-82
2022/12/08 05:12:30;;;;;;;18.48;9.25;;;;;;;4.25;100.00;99174.09;12185190;19;20010;-83
2022/12/08 05:16:31;;;;;;;19.30;8.98;;;;;;;4.23;100.00;99173.50;12207138;19;20002;-83
2022/12/08 05:20:34;;;;;;;20.55;8.65;;;;;;;4.23;100.00;99181.69;12206509;19;19999;-82
2022/12/08 05:24:36;;;;;;;20.10;7.80;;;;;;;4.23;100.00;99174.34;12183045;19;20046;-84
2022/12/08 05:28:40;;;;;;;21.02;9.38;;;;;;;4.22;100.00;99169.09;12203514;19;20006;-83
2022/12/08 05:32:44;;;;;;;21.85;9.75;;;;;;;4.20;100.00;99169.31;12197476;19;20010;-82
2022/12/08 05:36:45;;;;;;;24.98;10.18;;;;;;;4.15;100.00;99169.16;12179691;19;20062;-82
2022/12/08 05:40:47;;;;;;;27.33;10.27;;;;;;;4.14;100.00;99164.78;12188368;19;20011;-83
2022/12/08 05:44:49;;;;;;;21.83;9.63;;;;;;;4.07;100.00;99156.63;12165110;19;20007;-82
2022/12/08 05:48:51;;;;;;;18.85;7.10;;;;;;;4.06;100.00;99149.50;12179806;19;20451;-83
2022/12/08 05:52:53;;;;;;;21.73;9.87;;;;;;;4.08;100.00;99152.88;12198069;19;20002;-82
2022/12/08 05:56:54;;;;;;;23.17;9.88;;;;;;;4.09;100.00;99143.63;12200471;19;20026;-82
2022/12/08 06:00:56;;;;;;;20.15;9.57;;;;;;;4.14;100.00;99161.22;12200913;19;20040;-83
2022/12/08 06:04:58;;;;;;;20.95;9.55;;;;;;;4.16;100.00;99153.63;12163777;19;20013;-81
2022/12/08 06:09:02;;;;;;;18.50;8.90;;;;;;;4.15;100.00;99160.97;12198003;19;20405;-81
2022/12/08 06:13:04;;;;;;;18.58;8.63;;;;;;;4.07;100.00;99150.34;12197685;19;20002;-81
2022/12/08 06:17:05;;;;;;;19.33;8.70;;;;;;;4.02;100.00;99151.03;12178898;19;20011;-82
2022/12/08 06:21:10;;;;;;;21.13;9.35;;;;;;;3.97;100.00;99150.84;12208396;19;20010;-82
2022/12/08 06:25:12;;;;;;;21.90;9.48;;;;;;;3.98;100.00;99157.97;12211107;19;20038;-82
2022/12/08 06:29:13;;;;;;;21.17;8.48;;;;;;;3.94;100.00;99153.19;12189979;19;20060;-83
2022/12/08 06:33:16;;;;;;;18.33;8.85;;;;;;;3.94;100.00;99151.31;12210792;19;20452;-82
2022/12/08 06:37:18;;;;;;;22.27;9.27;;;;;;;3.91;100.00;99151.75;12211769;19;20006;-83
2022/12/08 06:41:20;;;;;;;18.52;8.50;;;;;;;3.89;100.00;99153.84;12188809;19;21141;-83
2022/12/08 06:45:22;;;;;;;21.23;8.43;;;;;;;3.88;100.00;99163.94;12212075;19;20006;-84
2022/12/08 06:49:24;;;;;;;18.50;8.93;;;;;;;3.88;100.00;99152.19;12205321;19;20472;-84
2022/12/08 06:53:26;;;;;;;23.13;9.60;;;;;;;3.92;100.00;99158.03;12186828;19;20009;-84
2022/12/08 06:57:28;;;;;;;16.73;9.52;;;;;;;3.89;100.00;99159.31;12205821;19;20027;-83
2022/12/08 07:01:30;;;;;;;21.52;8.65;;;;;;;3.86;100.00;99154.31;12208117;19;20003;-83
2022/12/08 07:05:32;;;;;;;21.35;8.75;;;;;;;3.83;100.00;99155.56;12193754;19;20547;-84
2022/12/08 07:09:33;;;;;;;18.65;7.85;;;;;;;3.88;100.00;99154.91;12206708;19;20444;-83
2022/12/08 07:13:36;;;;;;;20.75;9.05;;;;;;;3.86;100.00;99154.31;12210036;19;20082;-84
2022/12/08 07:17:38;;;;;;;20.80;8.65;;;;;;;3.82;100.00;99155.81;12187297;19;20003;-84
2022/12/08 07:21:39;;;;;;;20.05;8.85;;;;;;;3.81;100.00;99162.34;12209188;19;20010;-83
2022/12/08 07:25:41;;;;;;;18.17;7.97;;;;;;;3.78;100.00;99160.06;12210417;19;20010;-83
2022/12/08 07:29:43;;;;;;;17.75;8.85;;;;;;;3.83;100.00;99157.47;12186187;19;20377;-83
2022/12/08 07:33:45;;;;;;;21.95;9.82;;;;;;;3.81;100.00;99146.81;12210528;19;20031;-83
2022/12/08 07:37:46;;;;;;;22.90;9.55;;;;;;;3.80;100.00;99158.75;12210411;19;20058;-82
2022/12/08 07:41:48;;;;;;;16.10;7.75;;;;;;;3.85;100.00;99149.91;12189569;19;20038;-83
2022/12/08 07:45:50;;;;;;;20.23;9.20;;;;;;;3.94;100.00;99155.94;12215038;19;20006;-83
2022/12/08 07:49:52;;;;;;;19.93;8.67;;;;;;;4.00;100.00;99155.03;12208329;19;20018;-84
2022/12/08 07:53:53;;;;;;;20.45;9.48;;;;;;;4.07;100.00;99150.34;12180517;19;20043;-84
2022/12/08 07:57:55;;;;;;;21.38;8.43;;;;;;;4.12;100.00;99153.25;12201726;19;20636;-84
2022/12/08 08:01:57;;;;;;;19.52;8.82;;;;;;;4.20;100.00;99155.69;12182989;19;20007;-83
2022/12/08 08:06:19;;;;;;;23.25;9.73;;;;;;;4.27;100.00;99155.63;12204290;19;20100;-83
2022/12/08 08:10:21;;;;;;;20.85;9.30;;;;;;;4.32;100.00;99156.63;12240965;19;20006;-83
2022/12/08 08:14:23;;;;;;;19.10;8.25;;;;;;;4.38;100.00;99148.59;12202341;19;20003;-83
2022/12/08 08:18:24;;;;;;;19.13;8.17;;;;;;;4.41;100.00;99153.59;12209972;19;20006;-83
2022/12/08 08:22:26;;;;;;;16.23;7.90;;;;;;;4.46;100.00;99162.78;12207738;19;20007;-83
2022/12/08 08:26:28;;;;;;;22.15;8.00;;;;;;;4.51;100.00;99157.44;12185042;19;20007;-83
2022/12/08 08:30:29;;;;;;;20.25;8.05;;;;;;;4.54;100.00;99154.28;12206522;19;20689;-83
2022/12/08 08:34:31;;;;;;;18.70;8.45;;;;;;;4.62;100.00;99157.78;12205082;19;20002;-83
2022/12/08 08:38:34;;;;;;;15.95;7.85;;;;;;;4.69;100.00;99158.53;12185612;19;20003;-83
2022/12/08 08:42:37;;;;;;;17.65;7.80;;;;;;;4.69;100.00;99159.34;12203141;19;20003;-83
2022/12/08 08:46:40;;;;;;;22.45;8.02;;;;;;;4.75;100.00;99160.34;12203863;19;20007;-83
2022/12/08 08:50:42;;;;;;;16.17;8.02;;;;;;;4.77;100.00;99156.31;12185666;19;20453;-83
2022/12/08 08:54:43;;;;;;;20.02;7.75;;;;;;;4.84;100.00;99160.88;12249367;19;20057;-82
2022/12/08 08:58:47;;;;;;;19.08;8.75;;;;;;;4.94;100.00;99153.81;12213679;19;20011;-83
2022/12/08 09:02:49;;;;;;;17.55;7.55;;;;;;;4.97;100.00;99149.81;12184949;19;20709;-84
2022/12/08 09:06:54;;;;;;;18.17;7.95;;;;;;;5.01;100.00;99151.00;12203775;19;20018;-83
2022/12/08 09:10:55;;;;;;;17.10;7.55;;;;;;;5.07;100.00;99154.72;12204962;19;20465;-83
2022/12/08 09:14:57;;;;;;;16.73;7.73;;;;;;;5.20;100.00;99151.78;12205022;19;20074;-83
2022/12/08 09:18:59;;;;;;;14.80;6.68;;;;;;;5.23;100.00;99152.19;12206659;19;20006;-83
2022/12/08 09:23:01;;;;;;;18.63;8.55;;;;;;;5.22;100.00;99149.66;12180997;19;20034;-83
2022/12/08 09:27:03;;;;;;;13.10;5.95;;;;;;;5.27;100.00;99144.34;12202289;19;20064;-83
2022/12/08 09:31:05;;;;;;;15.90;7.70;;;;;;;5.32;100.00;99139.00;12201804;19;20028;-83
2022/12/08 09:35:07;;;;;;;16.33;7.33;;;;;;;5.33;100.00;99140.69;12181382;19;20849;-83
2022/12/08 09:39:09;;;;;;;14.25;6.97;;;;;;;5.41;100.00;99145.84;12203799;19;20392;-83
2022/12/08 09:43:34;;;;;;;19.35;7.43;;;;;;;5.57;100.00;99130.66;12198864;19;20010;-83
2022/12/08 09:47:42;;;;;;;18.50;7.05;;;;;;;5.68;100.00;99126.28;12180158;19;20017;-83
2022/12/08 09:51:45;;;;;;;16.35;7.22;;;;;;;5.72;100.00;99124.75;12201231;19;20602;-84
2022/12/08 09:56:11;;;;;;;12.52;6.82;;;;;;;5.74;100.00;99117.16;12212315;19;20377;-83
2022/12/08 10:00:14;;;;;;;18.23;6.93;;;;;;;5.85;100.00;99118.22;12185135;19;20010;-83
2022/12/08 10:04:27;;;;;;;18.77;7.80;;;;;;;5.79;100.00;99114.53;12212535;19;20063;-83
2022/12/08 10:08:42;;;;;;;17.02;7.22;;;;;;;5.73;100.00;99101.81;12189277;19;20010;-83
2022/12/08 10:12:59;;;;;;;17.23;7.57;;;;;;;5.80;100.00;99105.28;12210344;19;20007;-83
2022/12/08 10:17:30;;;;;;;13.52;7.00;;;;;;;5.81;100.00;99106.09;12191725;19;20041;-84
2022/12/08 10:21:32;;;;;;;17.67;6.95;;;;;;;5.82;100.00;99105.84;12210262;19;20002;-83
2022/12/08 10:25:41;;;;;;;20.80;6.85;;;;;;;5.83;100.00;99104.81;12213619;19;20632;-83
2022/12/08 10:29:43;;;;;;;16.02;6.70;;;;;;;5.92;100.00;99092.44;12190232;19;20014;-83
2022/12/08 10:33:47;;;;;;;13.60;6.43;;;;;;;5.98;100.00;99090.69;12213241;19;19999;-83
2022/12/08 10:38:01;;;;;;;14.48;6.70;;;;;;;6.00;100.00;99088.53;12211763;19;20027;-83
2022/12/08 10:42:05;;;;;;;14.70;7.00;;;;;;;6.12;100.00;99081.16;12188661;19;20801;-83
2022/12/08 10:46:20;;;;;;;14.15;6.20;;;;;;;6.19;100.00;99080.19;12208038;19;20006;-83
2022/12/08 10:50:29;;;;;;;14.20;6.53;;;;;;;6.30;100.00;99068.41;12192444;19;20113;-82
2022/12/08 10:54:34;;;;;;;14.90;6.28;;;;;;;6.43;100.00;99070.09;12216785;19;20014;-83
2022/12/08 10:58:41;;;;;;;16.73;7.32;;;;;;;6.57;100.00;99063.25;12219490;19;20363;-82
2022/12/08 11:02:51;;;;;;;16.48;7.90;;;;;;;6.50;100.00;99062.56;12226879;19;20011;-82
2022/12/08 11:06:53;;;;;;;15.23;7.25;;;;;;;6.49;100.00;99063.66;12265670;19;20035;-82
2022/12/08 11:10:54;;;;;;;15.85;6.80;;;;;;;6.52;100.00;99060.44;12228900;19;20094;-82
2022/12/08 11:15:02;;;;;;;14.20;7.38;;;;;;;6.55;100.00;99059.94;12197716;19;20010;-82
2022/12/08 11:19:06;;;;;;;17.80;7.38;;;;;;;6.69;100.00;99053.09;12218180;19;20464;-83
2022/12/08 11:23:23;;;;;;;13.10;7.38;;;;;;;6.89;99.92;99040.88;12194169;19;20035;-82
2022/12/08 11:27:25;;;;;;;15.25;7.03;;;;;;;7.09;99.36;99046.75;12211975;19;20003;-82
2022/12/08 11:31:34;;;;;;;16.33;7.38;;;;;;;7.15;98.47;99028.50;12214739;19;20432;-82
2022/12/08 11:35:39;;;;;;;12.50;7.03;;;;;;;7.22;97.79;99027.25;12195233;19;20031;-82
2022/12/08 11:39:47;;;;;;;15.00;7.38;;;;;;;7.23;97.40;99026.19;12215591;19;20034;-83
2022/12/08 11:44:04;;;;;;;20.02;7.70;;;;;;;7.15;96.41;99021.09;12214553;19;20031;-83
2022/12/08 11:48:35;;;;;;;13.82;6.45;;;;;;;7.04;95.89;99011.88;12195694;19;20078;-83
2022/12/08 11:52:49;;;;;;;14.32;6.72;;;;;;;7.04;95.67;99014.59;12218427;19;20087;-82
2022/12/08 11:57:00;;;;;;;16.50;7.65;;;;;;;7.02;95.85;99008.56;12192210;19;20006;-83
2022/12/08 12:01:02;;;;;;;13.93;6.70;;;;;;;6.98;95.60;99012.03;12213514;19;20805;-83
2022/12/08 12:05:21;;;;;;;15.07;7.55;;;;;;;7.02;94.96;99007.72;12201846;19;20007;-82
2022/12/08 12:10:01;;;;;;;13.57;6.70;;;;;;;7.03;95.40;99004.75;12217570;19;20022;-82
2022/12/08 12:14:09;;;;;;;15.52;7.45;;;;;;;7.05;95.01;98990.81;12189864;19;20006;-82
2022/12/08 12:18:30;;;;;;;14.45;6.65;;;;;;;6.98;94.47;98990.13;12209389;19;20010;-83
2022/12/08 12:22:36;;;;;;;16.30;7.15;;;;;;;7.08;95.54;98987.56;12212410;19;20035;-82
2022/12/08 12:26:54;;;;;;;13.20;6.80;;;;;;;7.13;94.84;98989.56;12194739;19;20011;-84
2022/12/08 12:31:24;;;;;;;16.05;8.02;;;;;;;7.35;95.05;98982.28;12216634;19;20002;-82
2022/12/08 12:35:36;;;;;;;13.02;7.20;;;;;;;7.31;93.25;98992.88;12186365;19;20472;-80
2022/12/08 12:40:16;;;;;;;15.80;7.95;;;;;;;7.18;93.26;98990.47;12206952;19;20046;-82
2022/12/08 12:44:17;;;;;;;14.73;7.40;;;;;;;7.00;93.73;98975.09;12187248;19;20346;-81
2022/12/08 12:48:23;;;;;;;14.38;7.80;;;;;;;6.94;94.67;98972.53;12205018;19;20070;-82
2022/12/08 12:52:31;;;;;;;16.80;8.15;;;;;;;7.08;94.92;98968.41;12204714;19;20086;-81
2022/12/08 12:57:08;;;;;;;16.10;7.32;;;;;;;7.21;94.61;98980.94;12194172;19;20029;-81
2022/12/08 13:01:10;;;;;;;10.57;5.70;;;;;;;7.25;93.93;98971.94;12203369;19;20013;-82
2022/12/08 13:05:12;;;;;;;14.52;5.82;;;;;;;7.23;92.98;98971.41;12180027;19;20010;-83
2022/12/08 13:09:35;;;;;;;12.10;6.07;;;;;;;7.18;92.26;98967.72;12209324;19;20034;-81
2022/12/08 13:13:53;;;;;;;12.88;6.03;;;;;;;7.01;91.84;98976.75;12212248;19;20097;-81
2022/12/08 13:17:56;;;;;;;15.90;6.78;;;;;;;6.96;92.46;98962.13;12186858;19;20011;-82
2022/12/08 13:21:59;;;;;;;14.10;6.22;;;;;;;6.92;92.51;98955.50;12211336;19;20466;-81
2022/12/08 13:26:15;;;;;;;16.65;6.97;;;;;;;6.98;92.46;98954.50;12189858;19;20014;-81
2022/12/08 13:30:43;;;;;;;10.45;5.40;;;;;;;7.03;92.65;98954.59;12216435;19;20097;-82
2022/12/08 13:34:54;;;;;;;11.68;6.55;;;;;;;7.07;91.81;98948.38;12224429;19;20385;-81
2022/12/08 13:38:57;;;;;;;10.85;5.15;;;;;;;7.11;91.69;98950.59;12201883;19;20398;-81
2022/12/08 13:43:15;;;;;;;13.52;5.57;;;;;;;7.14;90.71;98948.22;12244682;19;20036;-80
2022/12/08 13:47:27;;;;;;;11.35;5.70;;;;;;;7.03;90.59;98936.25;12244126;19;20028;-80
2022/12/08 13:51:42;;;;;;;11.27;5.63;;;;;;;7.02;91.27;98944.69;12232693;19;20014;-81
2022/12/08 13:56:05;;;;;;;16.33;7.10;;;;;;;7.05;91.00;98939.59;12212954;19;20110;-81
2022/12/08 14:00:26;;;;;;;15.40;6.97;;;;;;;6.97;91.50;98939.16;12228025;19;20041;-81
2022/12/08 14:04:28;;;;;;;13.50;6.15;;;;;;;7.00;91.59;98935.94;12224371;19;20002;-81
2022/12/08 14:08:54;;;;;;;;;;;;;;;6.79;91.17;98946.53;12205457;19;20007;-82
2022/12/08 14:13:11;;;;;;;16.55;7.00;;;;;;;6.60;91.68;98940.44;12223955;19;19963;-82
2022/12/08 14:17:15;;;;;;;14.45;6.72;;;;;;;6.37;92.56;98949.56;12205468;19;20011;-81
2022/12/08 14:21:17;;;;;;;14.45;7.18;;;;;;;6.23;93.17;98945.44;12223192;19;20002;-81
2022/12/08 14:25:25;;;;;;;15.68;7.20;;;;;;;6.15;93.80;98948.56;12228089;19;20003;-82
2022/12/08 14:29:42;;;;;;;16.60;6.80;;;;;;;6.08;94.35;98943.22;12200838;19;20034;-81
2022/12/08 14:33:45;;;;;;;13.85;6.88;;;;;;;6.07;94.21;98951.69;12222461;19;20474;-81
2022/12/08 14:37:57;;;;;;;14.95;7.10;;;;;;;6.09;94.76;98953.09;12225718;19;20025;-82
2022/12/08 14:41:59;;;;;;;14.90;7.50;;;;;;;6.10;94.84;98952.03;12196460;19;20003;-81
2022/12/08 14:46:23;;;;;;;11.87;4.90;;;;;;;6.02;94.98;98955.13;12222998;19;20039;-81
2022/12/08 14:50:45;;;;;;;19.65;9.30;;;;;;;5.99;95.09;98957.53;12198440;19;20003;-81
2022/12/08 14:54:48;;;;;;;16.52;7.32;;;;;;;5.94;95.37;98960.97;12222193;19;20112;-81
2022/12/08 14:59:03;;;;;;;15.07;6.68;;;;;;;5.87;95.60;98955.59;12220251;19;20031;-82
2022/12/08 15:03:06;;;;;;;12.93;6.63;;;;;;;5.79;95.87;98961.44;12194328;19;20007;-81
2022/12/08 15:07:17;;;;;;;15.18;6.55;;;;;;;5.74;96.35;98957.75;12216606;19;21415;-81
2022/12/08 15:11:21;;;;;;;15.02;6.45;;;;;;;5.67;96.54;98952.41;12196645;19;20022;-81
2022/12/08 15:15:23;;;;;;;13.00;6.93;;;;;;;5.60;96.78;98955.28;12214395;19;20003;-81
2022/12/08 15:19:28;;;;;;;13.43;6.25;;;;;;;5.48;96.80;98949.81;12216552;19;20010;-82
2022/12/08 15:23:41;;;;;;;15.15;6.75;;;;;;;5.37;97.63;98950.63;12199312;19;20014;-82
2022/12/08 15:27:43;;;;;;;19.10;7.35;;;;;;;5.34;97.86;98942.91;12219991;19;20024;-82
2022/12/08 15:31:54;;;;;;;13.45;7.05;;;;;;;5.32;98.06;98947.78;12219651;19;20471;-82
2022/12/08 15:35:56;;;;;;;15.50;6.97;;;;;;;5.30;98.18;98962.78;12195997;19;20002;-82
2022/12/08 15:39:58;;;;;;;12.07;7.10;;;;;;;5.28;98.71;98962.16;12220083;19;20532;-82
2022/12/08 15:44:00;;;;;;;15.13;7.10;;;;;;;5.20;98.70;98963.31;12195023;19;20009;-83
2022/12/08 15:48:02;;;;;;;15.45;7.43;;;;;;;5.19;98.91;98958.94;12222544;19;20052;-82
2022/12/08 15:52:05;;;;;;;15.52;7.07;;;;;;;5.13;99.26;98955.25;12220111;19;20035;-82
2022/12/08 15:56:12;;;;;;;15.80;7.45;;;;;;;5.08;99.40;98960.59;12198806;19;20014;-81
2022/12/08 16:00:33;;;;;;;17.15;7.90;;;;;;;5.06;99.81;98962.75;12219587;19;20007;-82
2022/12/08 16:04:55;;;;;;;13.73;7.05;;;;;;;5.08;100.00;98952.38;12218172;19;20587;-81
2022/12/08 16:09:22;;;;;;;14.02;7.72;;;;;;;5.08;100.00;98959.75;12198293;19;20006;-82
2022/12/08 16:17:58;;;;;;;16.75;7.63;;;;;;;5.10;100.00;98960.38;12198266;19;20127;-81
2022/12/08 16:22:00;;;;;;;18.70;8.43;;;;;;;5.12;100.00;98955.50;12216941;19;20030;-81
2022/12/08 16:26:22;;;;;;;15.18;8.10;;;;;;;5.13;100.00;98957.16;12194797;19;20035;-82
2022/12/08 16:30:44;;;;;;;20.42;8.68;;;;;;;5.14;100.00;98948.72;12215112;19;20554;-82
2022/12/08 16:34:47;;;;;;;13.95;6.85;;;;;;;5.14;100.00;98953.34;12215869;19;20010;-83
2022/12/08 16:38:49;;;;;;;13.80;6.43;;;;;;;5.20;100.00;98941.47;12179600;19;20087;-82
2022/12/08 16:42:50;;;;;;;16.52;7.80;;;;;;;5.17;100.00;98942.78;12197903;19;20456;-82
2022/12/08 16:46:52;;;;;;;16.48;7.25;;;;;;;5.15;100.00;98947.66;12201571;19;20010;-83
2022/12/08 16:50:54;;;;;;;15.90;7.22;;;;;;;5.13;100.00;98951.69;12179727;19;20047;-82
2022/12/08 16:54:58;;;;;;;16.23;8.38;;;;;;;5.05;100.00;98941.13;12207333;19;20020;-83
2022/12/08 16:59:00;;;;;;;12.82;6.63;;;;;;;5.05;100.00;98943.84;12234652;19;20007;-83
2022/12/08 17:03:07;;;;;;;16.92;8.23;;;;;;;5.07;100.00;98945.28;12247886;19;20011;-82
2022/12/08 17:07:08;;;;;;;17.27;8.05;;;;;;;5.03;100.00;98947.66;12200420;19;20034;-82
2022/12/08 17:11:21;;;;;;;16.27;8.38;;;;;;;5.03;100.00;98941.38;12179167;19;20027;-83
2022/12/08 17:15:24;;;;;;;13.90;7.05;;;;;;;5.06;100.00;98934.56;12197978;19;20011;-83
2022/12/08 17:19:26;;;;;;;17.63;8.30;;;;;;;5.06;100.00;98934.56;12199504;19;20011;-83
2022/12/08 17:23:27;;;;;;;20.63;9.95;;;;;;;5.09;100.00;98934.13;12177045;19;20002;-83
2022/12/08 17:27:30;;;;;;;17.75;9.00;;;;;;;5.06;100.00;98929.09;12196153;19;20580;-82
2022/12/08 17:31:47;;;;;;;21.33;9.20;;;;;;;4.95;100.00;98928.88;12203009;19;20034;-83
2022/12/08 17:35:53;;;;;;;17.50;8.13;;;;;;;4.86;100.00;98932.19;12178474;19;20023;-83
2022/12/08 17:40:09;;;;;;;16.08;8.18;;;;;;;4.78;100.00;98923.25;12194918;19;20062;-82
2022/12/08 17:44:24;;;;;;;17.42;8.35;;;;;;;4.73;100.00;98925.88;12176045;19;20011;-83
2022/12/08 17:48:27;;;;;;;14.68;7.57;;;;;;;4.67;100.00;98934.13;12195181;19;20021;-83
2022/12/08 17:52:28;;;;;;;18.27;8.32;;;;;;;4.62;100.00;98936.75;12194401;19;20098;-83
2022/12/08 17:56:30;;;;;;;16.80;8.77;;;;;;;4.63;100.00;98938.41;12173025;19;20345;-83
2022/12/08 18:00:32;;;;;;;17.45;7.68;;;;;;;4.65;100.00;98933.56;12195800;19;20381;-83
2022/12/08 18:04:34;;;;;;;16.42;7.70;;;;;;;4.60;100.00;98930.69;12193042;19;20014;-82
2022/12/08 18:08:36;;;;;;;21.08;8.10;;;;;;;4.60;100.00;98931.50;12173455;19;20035;-83
2022/12/08 18:12:37;;;;;;;19.90;7.90;;;;;;;4.60;100.00;98925.22;12196399;19;20010;-82
2022/12/08 18:16:44;;;;;;;21.77;8.93;;;;;;;4.61;100.00;98924.16;12211129;19;20007;-82
2022/12/08 18:20:46;;;;;;;17.48;8.57;;;;;;;4.61;100.00;98916.81;12192794;19;20007;-82
2022/12/08 18:24:48;;;;;;;15.85;7.93;;;;;;;4.61;100.00;98921.44;12209088;19;20003;-82
2022/12/08 18:28:50;;;;;;;20.05;9.55;;;;;;;4.59;100.00;98912.66;12210911;19;20005;-82
2022/12/08 18:32:52;;;;;;;19.00;8.77;;;;;;;4.61;100.00;98925.00;12185827;19;19999;-82
2022/12/08 18:36:57;;;;;;;20.70;9.43;;;;;;;4.62;100.00;98931.28;12246644;19;20003;-83
2022/12/08 18:41:07;;;;;;;21.40;9.70;;;;;;;4.66;100.00;98930.59;12202887;19;20034;-83
2022/12/08 18:45:09;;;;;;;20.15;9.95;;;;;;;4.61;100.00;98935.94;12212022;19;20002;-83
2022/12/08 18:49:14;;;;;;;20.23;9.53;;;;;;;4.60;100.00;98927.97;12209797;19;20082;-82
2022/12/08 18:53:16;;;;;;;18.02;8.48;;;;;;;4.63;100.00;98922.84;12190868;19;20085;-83
2022/12/08 18:57:18;;;;;;;17.75;8.27;;;;;;;4.64;100.00;98918.22;12211382;19;20010;-82
2022/12/08 19:01:20;;;;;;;18.92;9.05;;;;;;;4.62;100.00;98923.94;12210367;19;20002;-82
2022/12/08 19:05:21;;;;;;;21.10;9.65;;;;;;;4.59;100.00;98923.56;12180811;19;20021;-82